Rheinfels — V2AI4 — position and weather

sailwx.info

Track history (hours):
 
Tides and Currents Weather Stations Pressure Air Temp Water Temp Dewpoint Dewpoint Depression Visibility Wind Speed Wind Dir Waves Ship Positions

Rheinfels

Last reported at 2016-Apr-30 12:32 UTC. Time now 2016-May-05 04:51 UTC.
Position N 43°40' W 005°23'.

; draft 3.4 m.

Type: Cargo ship. MMSI: 304010767.

Date/timePositionNaut miles runAvg speedWind from/ knotsBaromVisibWave heightAir tempDewpointWater temp
2016-Apr-30 12:32N 43°40' W 005°23'10 9.3
2016-Apr-30 11:28N 43°41' W 005°37'8 8.9
2016-Apr-30 10:34N 43°42' W 005°48'9 8.5
2016-Apr-30 09:28N 43°43' W 006°01'53 8.9
2016-Apr-30 03:33N 43°48' W 007°14'9 9.2
2016-Apr-30 02:33N 43°49' W 007°26'9 9.2
2016-Apr-30 01:33N 43°50' W 007°39'10 9.4
2016-Apr-30 00:32N 43°50' W 007°52'  
2016-Apr-21 10:33N 50°00' W 003°55'1010.0
2016-Apr-21 09:33N 50°07' W 003°43'9 9.3
2016-Apr-21 08:33N 50°14' W 003°33'8 7.8
2016-Apr-21 07:33N 50°20' W 003°26'8 8.1
2016-Apr-21 06:34N 50°28' W 003°27'5 4.8
2016-Apr-21 05:32N 50°33' W 003°30'0 0.0
2016-Apr-21 04:31N 50°33' W 003°30'0 0.0
2016-Apr-21 03:31N 50°33' W 003°30'0 0.0
2016-Apr-21 02:31N 50°33' W 003°30'0 0.0
2016-Apr-21 01:31N 50°33' W 003°30'0 0.0
2016-Apr-21 00:31N 50°33' W 003°30'0 0.0
2016-Apr-20 23:31N 50°33' W 003°30'0 0.0
2016-Apr-20 22:31N 50°33' W 003°30'0 0.0
2016-Apr-20 21:31N 50°33' W 003°30'0 0.0
2016-Apr-20 20:31N 50°33' W 003°30'0 0.0
2016-Apr-20 19:31N 50°33' W 003°30'0 0.0
2016-Apr-20 18:31N 50°33' W 003°30'0 0.0
2016-Apr-20 17:31N 50°33' W 003°30'0 0.1
2016-Apr-20 16:31N 50°33' W 003°30'0 0.0
2016-Apr-20 15:31N 50°33' W 003°30'0 0.0
2016-Apr-20 14:31N 50°33' W 003°30'0 0.0
2016-Apr-20 13:31N 50°33' W 003°30'  
Track history (hours):
 
Tides and Currents Weather Stations Pressure Air Temp Water Temp Dewpoint Dewpoint Depression Visibility Wind Speed Wind Dir Waves Ship Positions

Rheinfels

Last reported at 2016-Apr-30 12:32 UTC. Time now 2016-May-05 04:51 UTC.
Position N 43°40' W 005°23'.

; draft 3.4 m.

Type: Cargo ship. MMSI: 304010767.

Date/timePositionNaut miles runAvg speedWind from/ knotsBaromVisibWave heightAir tempDewpointWater temp
2016-Apr-30 12:32N 43°40' W 005°23'10 9.3
2016-Apr-30 11:28N 43°41' W 005°37'8 8.9
2016-Apr-30 10:34N 43°42' W 005°48'9 8.5
2016-Apr-30 09:28N 43°43' W 006°01'53 8.9
2016-Apr-30 03:33N 43°48' W 007°14'9 9.2
2016-Apr-30 02:33N 43°49' W 007°26'9 9.2
2016-Apr-30 01:33N 43°50' W 007°39'10 9.4
2016-Apr-30 00:32N 43°50' W 007°52'  
2016-Apr-21 10:33N 50°00' W 003°55'1010.0
2016-Apr-21 09:33N 50°07' W 003°43'9 9.3
2016-Apr-21 08:33N 50°14' W 003°33'8 7.8
2016-Apr-21 07:33N 50°20' W 003°26'8 8.1
2016-Apr-21 06:34N 50°28' W 003°27'5 4.8
2016-Apr-21 05:32N 50°33' W 003°30'0 0.0
2016-Apr-21 04:31N 50°33' W 003°30'0 0.0
2016-Apr-21 03:31N 50°33' W 003°30'0 0.0
2016-Apr-21 02:31N 50°33' W 003°30'0 0.0
2016-Apr-21 01:31N 50°33' W 003°30'0 0.0
2016-Apr-21 00:31N 50°33' W 003°30'0 0.0
2016-Apr-20 23:31N 50°33' W 003°30'0 0.0
2016-Apr-20 22:31N 50°33' W 003°30'0 0.0
2016-Apr-20 21:31N 50°33' W 003°30'0 0.0
2016-Apr-20 20:31N 50°33' W 003°30'0 0.0
2016-Apr-20 19:31N 50°33' W 003°30'0 0.0
2016-Apr-20 18:31N 50°33' W 003°30'0 0.0
2016-Apr-20 17:31N 50°33' W 003°30'0 0.1
2016-Apr-20 16:31N 50°33' W 003°30'0 0.0
2016-Apr-20 15:31N 50°33' W 003°30'0 0.0
2016-Apr-20 14:31N 50°33' W 003°30'0 0.0
2016-Apr-20 13:31N 50°33' W 003°30'  

Dump ship's entire track history